sensor_id;sensor_type;location;lat;lon;timestamp;temperature;humidity
18085;DHT22;9169;44.492;11.372;2022-12-07T00:02:26;11.20;66.10
18085;DHT22;9169;44.492;11.372;2022-12-07T00:04:53;11.20;66.20
18085;DHT22;9169;44.492;11.372;2022-12-07T00:07:21;11.20;66.30
18085;DHT22;9169;44.492;11.372;2022-12-07T00:09:48;11.10;66.10
18085;DHT22;9169;44.492;11.372;2022-12-07T00:12:15;11.20;66.20
18085;DHT22;9169;44.492;11.372;2022-12-07T00:14:41;11.20;66.70
18085;DHT22;9169;44.492;11.372;2022-12-07T00:17:08;11.10;66.50
18085;DHT22;9169;44.492;11.372;2022-12-07T00:19:35;11.10;66.50
18085;DHT22;9169;44.492;11.372;2022-12-07T00:22:01;11.10;66.50
18085;DHT22;9169;44.492;11.372;2022-12-07T00:24:30;11.10;66.60
18085;DHT22;9169;44.492;11.372;2022-12-07T00:26:56;11.10;66.50
18085;DHT22;9169;44.492;11.372;2022-12-07T00:29:23;11.10;66.50
18085;DHT22;9169;44.492;11.372;2022-12-07T00:31:50;11.10;66.80
18085;DHT22;9169;44.492;11.372;2022-12-07T00:34:18;11.00;66.80
18085;DHT22;9169;44.492;11.372;2022-12-07T00:36:45;11.00;66.80
18085;DHT22;9169;44.492;11.372;2022-12-07T00:39:12;11.00;66.70
18085;DHT22;9169;44.492;11.372;2022-12-07T00:41:40;11.00;66.70
18085;DHT22;9169;44.492;11.372;2022-12-07T00:44:07;11.00;66.70
18085;DHT22;9169;44.492;11.372;2022-12-07T00:46:33;11.10;66.90
18085;DHT22;9169;44.492;11.372;2022-12-07T00:49:00;11.00;67.10
18085;DHT22;9169;44.492;11.372;2022-12-07T00:51:27;11.00;67.00
18085;DHT22;9169;44.492;11.372;2022-12-07T00:53:54;11.00;67.20
18085;DHT22;9169;44.492;11.372;2022-12-07T00:56:21;11.00;67.10
18085;DHT22;9169;44.492;11.372;2022-12-07T00:58:53;11.00;67.20
18085;DHT22;9169;44.492;11.372;2022-12-07T01:01:21;11.00;67.20
18085;DHT22;9169;44.492;11.372;2022-12-07T01:03:48;11.00;67.10
18085;DHT22;9169;44.492;11.372;2022-12-07T01:06:15;11.00;67.00
18085;DHT22;9169;44.492;11.372;2022-12-07T01:08:42;11.00;67.00
18085;DHT22;9169;44.492;11.372;2022-12-07T01:11:09;11.00;66.80
18085;DHT22;9169;44.492;11.372;2022-12-07T01:13:37;11.00;66.70
18085;DHT22;9169;44.492;11.372;2022-12-07T01:16:06;11.00;66.80
18085;DHT22;9169;44.492;11.372;2022-12-07T01:18:34;11.00;66.80
18085;DHT22;9169;44.492;11.372;2022-12-07T01:21:01;11.00;66.80
18085;DHT22;9169;44.492;11.372;2022-12-07T01:23:28;11.00;66.80
18085;DHT22;9169;44.492;11.372;2022-12-07T01:25:56;11.00;67.00
18085;DHT22;9169;44.492;11.372;2022-12-07T01:28:23;10.90;66.90
18085;DHT22;9169;44.492;11.372;2022-12-07T01:30:56;10.90;66.90
18085;DHT22;9169;44.492;11.372;2022-12-07T01:33:25;10.90;67.10
18085;DHT22;9169;44.492;11.372;2022-12-07T01:35:52;10.90;67.20
18085;DHT22;9169;44.492;11.372;2022-12-07T01:38:19;10.90;67.20
18085;DHT22;9169;44.492;11.372;2022-12-07T01:40:53;10.90;67.20
18085;DHT22;9169;44.492;11.372;2022-12-07T01:43:19;10.90;67.20
18085;DHT22;9169;44.492;11.372;2022-12-07T01:45:46;10.90;67.30
18085;DHT22;9169;44.492;11.372;2022-12-07T01:48:14;10.90;67.30
18085;DHT22;9169;44.492;11.372;2022-12-07T01:50:44;10.90;67.40
18085;DHT22;9169;44.492;11.372;2022-12-07T01:53:12;10.90;67.20
18085;DHT22;9169;44.492;11.372;2022-12-07T01:55:40;10.90;67.20
18085;DHT22;9169;44.492;11.372;2022-12-07T01:58:08;10.90;67.10
18085;DHT22;9169;44.492;11.372;2022-12-07T02:00:35;10.90;67.10
18085;DHT22;9169;44.492;11.372;2022-12-07T02:03:04;10.90;66.90
18085;DHT22;9169;44.492;11.372;2022-12-07T02:05:31;10.90;67.00
18085;DHT22;9169;44.492;11.372;2022-12-07T02:08:00;10.80;66.90
18085;DHT22;9169;44.492;11.372;2022-12-07T02:10:27;10.90;66.90
18085;DHT22;9169;44.492;11.372;2022-12-07T02:12:55;10.80;66.90
18085;DHT22;9169;44.492;11.372;2022-12-07T02:15:25;10.80;66.90
18085;DHT22;9169;44.492;11.372;2022-12-07T02:17:56;10.80;66.90
18085;DHT22;9169;44.492;11.372;2022-12-07T02:20:27;10.90;66.90
18085;DHT22;9169;44.492;11.372;2022-12-07T02:23:12;10.80;66.60
18085;DHT22;9169;44.492;11.372;2022-12-07T02:25:52;10.80;66.60
18085;DHT22;9169;44.492;11.372;2022-12-07T02:28:23;10.80;66.50
18085;DHT22;9169;44.492;11.372;2022-12-07T02:30:53;10.80;66.50
18085;DHT22;9169;44.492;11.372;2022-12-07T02:33:22;10.80;66.30
18085;DHT22;9169;44.492;11.372;2022-12-07T02:35:53;10.70;66.20
18085;DHT22;9169;44.492;11.372;2022-12-07T02:38:24;10.70;66.20
18085;DHT22;9169;44.492;11.372;2022-12-07T02:40:53;10.70;66.20
18085;DHT22;9169;44.492;11.372;2022-12-07T02:43:21;10.70;66.40
18085;DHT22;9169;44.492;11.372;2022-12-07T02:45:50;10.60;66.30
18085;DHT22;9169;44.492;11.372;2022-12-07T02:48:19;10.60;66.40
18085;DHT22;9169;44.492;11.372;2022-12-07T02:50:48;10.60;66.40
18085;DHT22;9169;44.492;11.372;2022-12-07T02:53:30;10.60;66.40
18085;DHT22;9169;44.492;11.372;2022-12-07T02:55:58;10.70;66.50
18085;DHT22;9169;44.492;11.372;2022-12-07T02:58:28;10.70;66.50
18085;DHT22;9169;44.492;11.372;2022-12-07T03:00:59;10.70;66.40
18085;DHT22;9169;44.492;11.372;2022-12-07T03:03:31;10.70;66.40
18085;DHT22;9169;44.492;11.372;2022-12-07T03:06:01;10.70;66.50
18085;DHT22;9169;44.492;11.372;2022-12-07T03:08:34;10.70;66.50
18085;DHT22;9169;44.492;11.372;2022-12-07T03:11:04;10.70;66.50
18085;DHT22;9169;44.492;11.372;2022-12-07T03:13:33;10.70;66.70
18085;DHT22;9169;44.492;11.372;2022-12-07T03:16:02;10.70;66.50
18085;DHT22;9169;44.492;11.372;2022-12-07T03:18:33;10.70;66.40
18085;DHT22;9169;44.492;11.372;2022-12-07T03:21:03;10.70;66.40
18085;DHT22;9169;44.492;11.372;2022-12-07T03:23:31;10.70;66.40
18085;DHT22;9169;44.492;11.372;2022-12-07T03:26:00;10.70;66.40
18085;DHT22;9169;44.492;11.372;2022-12-07T03:28:28;10.80;66.60
18085;DHT22;9169;44.492;11.372;2022-12-07T03:30:58;10.70;66.50
18085;DHT22;9169;44.492;11.372;2022-12-07T03:33:27;10.70;66.50
18085;DHT22;9169;44.492;11.372;2022-12-07T03:35:58;10.70;66.60
18085;DHT22;9169;44.492;11.372;2022-12-07T03:38:28;10.70;66.70
18085;DHT22;9169;44.492;11.372;2022-12-07T03:40:58;10.70;66.70
18085;DHT22;9169;44.492;11.372;2022-12-07T03:43:27;10.70;66.70
18085;DHT22;9169;44.492;11.372;2022-12-07T03:45:57;10.70;66.70
18085;DHT22;9169;44.492;11.372;2022-12-07T03:48:28;10.70;66.70
18085;DHT22;9169;44.492;11.372;2022-12-07T03:51:01;10.70;66.50
18085;DHT22;9169;44.492;11.372;2022-12-07T03:53:33;10.80;66.60
18085;DHT22;9169;44.492;11.372;2022-12-07T03:56:01;10.70;66.40
18085;DHT22;9169;44.492;11.372;2022-12-07T03:58:28;10.70;66.30
18085;DHT22;9169;44.492;11.372;2022-12-07T04:00:56;10.70;66.30
18085;DHT22;9169;44.492;11.372;2022-12-07T04:03:23;10.70;66.20
18085;DHT22;9169;44.492;11.372;2022-12-07T04:05:49;10.70;66.30
18085;DHT22;9169;44.492;11.372;2022-12-07T04:08:18;10.70;66.20
18085;DHT22;9169;44.492;11.372;2022-12-07T04:10:44;10.70;66.20
18085;DHT22;9169;44.492;11.372;2022-12-07T04:13:11;10.70;66.20
18085;DHT22;9169;44.492;11.372;2022-12-07T04:15:38;10.80;66.40
18085;DHT22;9169;44.492;11.372;2022-12-07T04:18:04;10.80;66.40
18085;DHT22;9169;44.492;11.372;2022-12-07T04:20:31;10.80;66.40
18085;DHT22;9169;44.492;11.372;2022-12-07T04:22:58;10.80;66.30
18085;DHT22;9169;44.492;11.372;2022-12-07T04:25:26;10.80;66.40
18085;DHT22;9169;44.492;11.372;2022-12-07T04:27:53;10.80;66.50
18085;DHT22;9169;44.492;11.372;2022-12-07T04:30:20;10.80;66.50
18085;DHT22;9169;44.492;11.372;2022-12-07T04:32:46;10.80;66.50
18085;DHT22;9169;44.492;11.372;2022-12-07T04:35:13;10.80;66.60
18085;DHT22;9169;44.492;11.372;2022-12-07T04:37:40;10.80;66.50
18085;DHT22;9169;44.492;11.372;2022-12-07T04:40:07;10.80;66.60
18085;DHT22;9169;44.492;11.372;2022-12-07T04:42:37;10.80;66.60
18085;DHT22;9169;44.492;11.372;2022-12-07T04:45:04;10.80;66.60
18085;DHT22;9169;44.492;11.372;2022-12-07T04:47:32;10.80;66.60
18085;DHT22;9169;44.492;11.372;2022-12-07T04:49:58;10.90;66.60
18085;DHT22;9169;44.492;11.372;2022-12-07T04:52:25;10.80;66.60
18085;DHT22;9169;44.492;11.372;2022-12-07T04:54:52;10.90;66.70
18085;DHT22;9169;44.492;11.372;2022-12-07T04:57:19;10.90;66.70
18085;DHT22;9169;44.492;11.372;2022-12-07T04:59:47;10.90;66.70
18085;DHT22;9169;44.492;11.372;2022-12-07T05:02:13;10.90;66.70
18085;DHT22;9169;44.492;11.372;2022-12-07T05:04:40;10.80;66.70
18085;DHT22;9169;44.492;11.372;2022-12-07T05:07:07;10.90;66.80
18085;DHT22;9169;44.492;11.372;2022-12-07T05:09:34;10.80;66.70
18085;DHT22;9169;44.492;11.372;2022-12-07T05:12:00;10.90;66.70
18085;DHT22;9169;44.492;11.372;2022-12-07T05:14:27;10.90;66.60
18085;DHT22;9169;44.492;11.372;2022-12-07T05:16:55;10.90;66.60
18085;DHT22;9169;44.492;11.372;2022-12-07T05:19:22;10.90;66.60
18085;DHT22;9169;44.492;11.372;2022-12-07T05:21:49;10.90;66.60
18085;DHT22;9169;44.492;11.372;2022-12-07T05:24:16;10.90;66.50
18085;DHT22;9169;44.492;11.372;2022-12-07T05:26:43;10.90;66.50
18085;DHT22;9169;44.492;11.372;2022-12-07T05:29:10;10.80;66.60
18085;DHT22;9169;44.492;11.372;2022-12-07T05:31:37;10.80;66.70
18085;DHT22;9169;44.492;11.372;2022-12-07T05:34:09;10.80;66.70
18085;DHT22;9169;44.492;11.372;2022-12-07T05:36:35;10.80;66.70
18085;DHT22;9169;44.492;11.372;2022-12-07T05:39:02;10.80;66.70
18085;DHT22;9169;44.492;11.372;2022-12-07T05:41:29;10.80;66.70
18085;DHT22;9169;44.492;11.372;2022-12-07T05:44:13;10.80;66.60
18085;DHT22;9169;44.492;11.372;2022-12-07T05:46:40;10.90;66.60
18085;DHT22;9169;44.492;11.372;2022-12-07T05:49:07;10.90;66.60
18085;DHT22;9169;44.492;11.372;2022-12-07T05:51:35;10.90;66.60
18085;DHT22;9169;44.492;11.372;2022-12-07T05:54:02;10.90;66.60
18085;DHT22;9169;44.492;11.372;2022-12-07T05:56:28;10.90;66.60
18085;DHT22;9169;44.492;11.372;2022-12-07T05:58:55;10.90;66.50
18085;DHT22;9169;44.492;11.372;2022-12-07T06:01:40;10.90;66.60
18085;DHT22;9169;44.492;11.372;2022-12-07T06:04:06;10.80;66.40
18085;DHT22;9169;44.492;11.372;2022-12-07T06:06:35;10.90;66.50
18085;DHT22;9169;44.492;11.372;2022-12-07T06:09:02;10.80;66.40
18085;DHT22;9169;44.492;11.372;2022-12-07T06:11:29;10.80;66.40
18085;DHT22;9169;44.492;11.372;2022-12-07T06:14:13;10.80;66.50
18085;DHT22;9169;44.492;11.372;2022-12-07T06:16:40;10.80;66.50
18085;DHT22;9169;44.492;11.372;2022-12-07T06:19:07;10.80;66.50
18085;DHT22;9169;44.492;11.372;2022-12-07T06:21:36;10.80;66.50
18085;DHT22;9169;44.492;11.372;2022-12-07T06:24:03;10.80;66.40
18085;DHT22;9169;44.492;11.372;2022-12-07T06:26:30;10.80;66.50
18085;DHT22;9169;44.492;11.372;2022-12-07T06:28:56;10.80;66.60
18085;DHT22;9169;44.492;11.372;2022-12-07T06:31:23;10.80;66.70
18085;DHT22;9169;44.492;11.372;2022-12-07T06:33:50;10.80;66.90
18085;DHT22;9169;44.492;11.372;2022-12-07T06:36:17;10.80;67.00
18085;DHT22;9169;44.492;11.372;2022-12-07T06:38:45;10.80;67.10
18085;DHT22;9169;44.492;11.372;2022-12-07T06:41:12;10.80;67.10
18085;DHT22;9169;44.492;11.372;2022-12-07T06:43:39;10.80;67.20
18085;DHT22;9169;44.492;11.372;2022-12-07T06:46:06;10.80;67.10
18085;DHT22;9169;44.492;11.372;2022-12-07T06:48:32;10.80;67.20
18085;DHT22;9169;44.492;11.372;2022-12-07T06:50:59;10.80;67.10
18085;DHT22;9169;44.492;11.372;2022-12-07T06:53:26;10.80;67.00
18085;DHT22;9169;44.492;11.372;2022-12-07T06:55:54;10.80;66.90
18085;DHT22;9169;44.492;11.372;2022-12-07T06:58:21;10.80;66.90
18085;DHT22;9169;44.492;11.372;2022-12-07T07:00:48;10.80;67.00
18085;DHT22;9169;44.492;11.372;2022-12-07T07:03:15;10.80;67.10
18085;DHT22;9169;44.492;11.372;2022-12-07T07:05:42;10.80;67.10
18085;DHT22;9169;44.492;11.372;2022-12-07T07:08:09;10.80;67.10
18085;DHT22;9169;44.492;11.372;2022-12-07T07:10:36;10.80;67.10
18085;DHT22;9169;44.492;11.372;2022-12-07T07:13:04;10.80;67.10
18085;DHT22;9169;44.492;11.372;2022-12-07T07:15:31;10.80;67.10
18085;DHT22;9169;44.492;11.372;2022-12-07T07:17:58;10.80;67.20
18085;DHT22;9169;44.492;11.372;2022-12-07T07:20:25;10.80;67.20
18085;DHT22;9169;44.492;11.372;2022-12-07T07:22:53;10.80;67.20
18085;DHT22;9169;44.492;11.372;2022-12-07T07:25:20;10.80;67.30
18085;DHT22;9169;44.492;11.372;2022-12-07T07:27:47;10.80;67.40
18085;DHT22;9169;44.492;11.372;2022-12-07T07:30:15;10.80;67.30
18085;DHT22;9169;44.492;11.372;2022-12-07T07:32:42;10.80;67.30
18085;DHT22;9169;44.492;11.372;2022-12-07T07:35:09;10.80;67.10
18085;DHT22;9169;44.492;11.372;2022-12-07T07:37:36;10.90;67.20
18085;DHT22;9169;44.492;11.372;2022-12-07T07:40:03;10.90;67.20
18085;DHT22;9169;44.492;11.372;2022-12-07T07:42:30;10.90;67.20
18085;DHT22;9169;44.492;11.372;2022-12-07T07:44:56;10.90;67.30
18085;DHT22;9169;44.492;11.372;2022-12-07T07:47:24;10.90;67.20
18085;DHT22;9169;44.492;11.372;2022-12-07T07:49:51;10.90;67.40
18085;DHT22;9169;44.492;11.372;2022-12-07T07:52:18;10.80;67.30
18085;DHT22;9169;44.492;11.372;2022-12-07T07:54:44;10.80;67.30
18085;DHT22;9169;44.492;11.372;2022-12-07T07:57:11;10.80;67.30
18085;DHT22;9169;44.492;11.372;2022-12-07T07:59:38;10.90;67.40
18085;DHT22;9169;44.492;11.372;2022-12-07T08:02:05;10.90;67.40
18085;DHT22;9169;44.492;11.372;2022-12-07T08:04:33;10.90;67.30
18085;DHT22;9169;44.492;11.372;2022-12-07T08:07:00;10.90;67.20
18085;DHT22;9169;44.492;11.372;2022-12-07T08:09:26;10.90;67.20
18085;DHT22;9169;44.492;11.372;2022-12-07T08:11:53;10.90;67.20
18085;DHT22;9169;44.492;11.372;2022-12-07T08:14:20;10.90;67.20
18085;DHT22;9169;44.492;11.372;2022-12-07T08:16:47;11.00;67.30
18085;DHT22;9169;44.492;11.372;2022-12-07T08:19:13;10.90;67.10
18085;DHT22;9169;44.492;11.372;2022-12-07T08:21:41;11.00;67.20
18085;DHT22;9169;44.492;11.372;2022-12-07T08:24:08;11.00;67.20
18085;DHT22;9169;44.492;11.372;2022-12-07T08:26:35;11.00;67.10
18085;DHT22;9169;44.492;11.372;2022-12-07T08:29:01;11.00;67.10
18085;DHT22;9169;44.492;11.372;2022-12-07T08:31:28;11.00;67.10
18085;DHT22;9169;44.492;11.372;2022-12-07T08:33:55;10.90;67.10
18085;DHT22;9169;44.492;11.372;2022-12-07T08:36:22;10.90;67.20
18085;DHT22;9169;44.492;11.372;2022-12-07T08:38:51;10.90;67.30
18085;DHT22;9169;44.492;11.372;2022-12-07T08:41:18;10.90;67.50
18085;DHT22;9169;44.492;11.372;2022-12-07T08:43:44;10.90;67.60
18085;DHT22;9169;44.492;11.372;2022-12-07T08:46:12;11.00;67.70
18085;DHT22;9169;44.492;11.372;2022-12-07T08:48:40;10.90;67.60
18085;DHT22;9169;44.492;11.372;2022-12-07T08:51:08;10.90;67.50
18085;DHT22;9169;44.492;11.372;2022-12-07T08:53:35;10.90;67.50
18085;DHT22;9169;44.492;11.372;2022-12-07T08:56:05;10.80;67.50
18085;DHT22;9169;44.492;11.372;2022-12-07T08:58:32;10.80;67.60
18085;DHT22;9169;44.492;11.372;2022-12-07T09:00:59;10.90;67.80
18085;DHT22;9169;44.492;11.372;2022-12-07T09:03:25;10.90;67.80
18085;DHT22;9169;44.492;11.372;2022-12-07T09:05:52;10.90;67.90
18085;DHT22;9169;44.492;11.372;2022-12-07T09:08:19;11.00;67.90
18085;DHT22;9169;44.492;11.372;2022-12-07T09:10:47;11.00;67.90
18085;DHT22;9169;44.492;11.372;2022-12-07T09:13:15;10.90;67.80
18085;DHT22;9169;44.492;11.372;2022-12-07T09:15:42;11.00;68.00
18085;DHT22;9169;44.492;11.372;2022-12-07T09:18:09;11.00;68.00
18085;DHT22;9169;44.492;11.372;2022-12-07T09:20:36;11.00;68.00
18085;DHT22;9169;44.492;11.372;2022-12-07T09:23:03;11.00;68.00
18085;DHT22;9169;44.492;11.372;2022-12-07T09:25:31;11.00;67.90
18085;DHT22;9169;44.492;11.372;2022-12-07T09:27:58;11.10;68.00
18085;DHT22;9169;44.492;11.372;2022-12-07T09:30:27;11.10;67.90
18085;DHT22;9169;44.492;11.372;2022-12-07T09:32:54;11.10;67.90
18085;DHT22;9169;44.492;11.372;2022-12-07T09:35:21;11.10;67.90
18085;DHT22;9169;44.492;11.372;2022-12-07T09:37:48;11.10;67.90
18085;DHT22;9169;44.492;11.372;2022-12-07T09:40:15;11.10;67.80
18085;DHT22;9169;44.492;11.372;2022-12-07T09:42:42;11.10;67.90
18085;DHT22;9169;44.492;11.372;2022-12-07T09:45:11;11.10;68.00
18085;DHT22;9169;44.492;11.372;2022-12-07T09:47:41;11.20;68.10
18085;DHT22;9169;44.492;11.372;2022-12-07T09:50:12;11.20;68.20
18085;DHT22;9169;44.492;11.372;2022-12-07T09:52:39;11.20;68.20
18085;DHT22;9169;44.492;11.372;2022-12-07T09:55:10;11.20;68.20
18085;DHT22;9169;44.492;11.372;2022-12-07T09:57:38;11.20;68.30
18085;DHT22;9169;44.492;11.372;2022-12-07T10:00:06;11.20;68.40
18085;DHT22;9169;44.492;11.372;2022-12-07T10:02:35;11.20;68.40
18085;DHT22;9169;44.492;11.372;2022-12-07T10:05:04;11.30;68.40
18085;DHT22;9169;44.492;11.372;2022-12-07T10:07:31;11.30;68.50
18085;DHT22;9169;44.492;11.372;2022-12-07T10:09:58;11.40;68.60
18085;DHT22;9169;44.492;11.372;2022-12-07T10:12:25;11.40;68.70
18085;DHT22;9169;44.492;11.372;2022-12-07T10:14:53;11.50;68.50
18085;DHT22;9169;44.492;11.372;2022-12-07T10:17:31;11.50;68.10
18085;DHT22;9169;44.492;11.372;2022-12-07T10:20:20;11.50;68.30
18085;DHT22;9169;44.492;11.372;2022-12-07T10:23:00;11.50;68.50
18085;DHT22;9169;44.492;11.372;2022-12-07T10:25:28;11.60;68.70
18085;DHT22;9169;44.492;11.372;2022-12-07T10:27:57;11.60;68.00
18085;DHT22;9169;44.492;11.372;2022-12-07T10:30:24;11.60;68.20
18085;DHT22;9169;44.492;11.372;2022-12-07T10:32:51;11.70;68.40
18085;DHT22;9169;44.492;11.372;2022-12-07T10:35:21;11.70;68.20
18085;DHT22;9169;44.492;11.372;2022-12-07T10:37:48;11.70;68.30
18085;DHT22;9169;44.492;11.372;2022-12-07T10:43:01;11.80;69.00
18085;DHT22;9169;44.492;11.372;2022-12-07T10:45:28;11.80;68.10
18085;DHT22;9169;44.492;11.372;2022-12-07T10:47:55;11.80;67.90
18085;DHT22;9169;44.492;11.372;2022-12-07T10:50:34;11.80;67.90
18085;DHT22;9169;44.492;11.372;2022-12-07T10:55:54;11.80;67.60
18085;DHT22;9169;44.492;11.372;2022-12-07T10:58:34;11.80;67.70
18085;DHT22;9169;44.492;11.372;2022-12-07T11:01:04;11.80;67.70
18085;DHT22;9169;44.492;11.372;2022-12-07T11:03:51;11.90;67.80
18085;DHT22;9169;44.492;11.372;2022-12-07T11:06:23;11.80;67.50
18085;DHT22;9169;44.492;11.372;2022-12-07T11:08:56;11.90;67.60
18085;DHT22;9169;44.492;11.372;2022-12-07T11:11:26;11.90;67.60
18085;DHT22;9169;44.492;11.372;2022-12-07T11:13:56;11.90;67.40
18085;DHT22;9169;44.492;11.372;2022-12-07T11:16:34;11.90;67.40
18085;DHT22;9169;44.492;11.372;2022-12-07T11:19:06;12.00;67.30
18085;DHT22;9169;44.492;11.372;2022-12-07T11:21:42;12.00;67.30
18085;DHT22;9169;44.492;11.372;2022-12-07T11:24:13;12.00;67.30
18085;DHT22;9169;44.492;11.372;2022-12-07T11:26:48;12.00;66.90
18085;DHT22;9169;44.492;11.372;2022-12-07T11:29:23;11.90;66.70
18085;DHT22;9169;44.492;11.372;2022-12-07T11:31:56;12.00;67.10
18085;DHT22;9169;44.492;11.372;2022-12-07T11:34:26;12.00;67.10
18085;DHT22;9169;44.492;11.372;2022-12-07T11:36:59;12.00;67.10
18085;DHT22;9169;44.492;11.372;2022-12-07T11:39:28;12.00;66.80
18085;DHT22;9169;44.492;11.372;2022-12-07T11:42:00;12.00;66.50
18085;DHT22;9169;44.492;11.372;2022-12-07T11:44:31;12.00;66.90
18085;DHT22;9169;44.492;11.372;2022-12-07T11:47:01;12.10;67.20
18085;DHT22;9169;44.492;11.372;2022-12-07T11:49:32;12.10;67.20
18085;DHT22;9169;44.492;11.372;2022-12-07T11:52:05;12.20;67.40
18085;DHT22;9169;44.492;11.372;2022-12-07T11:54:34;12.20;67.40
18085;DHT22;9169;44.492;11.372;2022-12-07T11:57:02;12.30;67.60
18085;DHT22;9169;44.492;11.372;2022-12-07T11:59:31;12.30;67.60
18085;DHT22;9169;44.492;11.372;2022-12-07T12:02:00;12.40;67.70
18085;DHT22;9169;44.492;11.372;2022-12-07T12:04:38;12.40;67.60
18085;DHT22;9169;44.492;11.372;2022-12-07T12:07:13;12.50;67.70
18085;DHT22;9169;44.492;11.372;2022-12-07T12:09:43;12.50;67.90
18085;DHT22;9169;44.492;11.372;2022-12-07T12:14:58;12.70;67.70
18085;DHT22;9169;44.492;11.372;2022-12-07T12:17:33;12.70;67.60
18085;DHT22;9169;44.492;11.372;2022-12-07T12:20:05;12.80;67.60
18085;DHT22;9169;44.492;11.372;2022-12-07T12:22:36;12.80;66.50
18085;DHT22;9169;44.492;11.372;2022-12-07T12:25:04;12.80;66.10
18085;DHT22;9169;44.492;11.372;2022-12-07T12:27:31;12.80;66.60
18085;DHT22;9169;44.492;11.372;2022-12-07T12:30:00;12.80;66.80
18085;DHT22;9169;44.492;11.372;2022-12-07T12:32:30;12.90;67.00
18085;DHT22;9169;44.492;11.372;2022-12-07T12:35:01;12.90;66.70
18085;DHT22;9169;44.492;11.372;2022-12-07T12:37:44;12.90;66.60
18085;DHT22;9169;44.492;11.372;2022-12-07T12:42:57;12.90;66.60
18085;DHT22;9169;44.492;11.372;2022-12-07T12:45:24;13.00;66.30
18085;DHT22;9169;44.492;11.372;2022-12-07T12:47:53;12.90;66.20
18085;DHT22;9169;44.492;11.372;2022-12-07T12:50:21;12.90;66.20
18085;DHT22;9169;44.492;11.372;2022-12-07T12:52:58;12.90;66.30
18085;DHT22;9169;44.492;11.372;2022-12-07T12:58:30;13.10;66.40
18085;DHT22;9169;44.492;11.372;2022-12-07T13:03:50;13.10;66.40
18085;DHT22;9169;44.492;11.372;2022-12-07T13:06:19;13.10;66.30
18085;DHT22;9169;44.492;11.372;2022-12-07T13:08:47;13.10;66.30
18085;DHT22;9169;44.492;11.372;2022-12-07T13:11:17;13.10;66.00
18085;DHT22;9169;44.492;11.372;2022-12-07T13:13:44;13.20;66.30
18085;DHT22;9169;44.492;11.372;2022-12-07T13:18:57;13.20;65.80
18085;DHT22;9169;44.492;11.372;2022-12-07T13:21:42;13.10;65.80
18085;DHT22;9169;44.492;11.372;2022-12-07T13:24:10;13.10;65.80
18085;DHT22;9169;44.492;11.372;2022-12-07T13:26:39;13.10;65.90
18085;DHT22;9169;44.492;11.372;2022-12-07T13:29:10;13.10;66.10
18085;DHT22;9169;44.492;11.372;2022-12-07T13:31:38;13.20;66.40
18085;DHT22;9169;44.492;11.372;2022-12-07T13:34:27;13.30;66.90
18085;DHT22;9169;44.492;11.372;2022-12-07T13:36:52;13.30;66.90
18085;DHT22;9169;44.492;11.372;2022-12-07T13:39:21;13.40;66.40
18085;DHT22;9169;44.492;11.372;2022-12-07T13:41:49;13.50;69.70
18085;DHT22;9169;44.492;11.372;2022-12-07T13:44:17;13.70;70.80
18085;DHT22;9169;44.492;11.372;2022-12-07T13:46:46;14.00;72.20
18085;DHT22;9169;44.492;11.372;2022-12-07T13:49:17;14.30;70.70
18085;DHT22;9169;44.492;11.372;2022-12-07T13:51:44;14.50;70.70
18085;DHT22;9169;44.492;11.372;2022-12-07T13:54:12;14.50;68.90
18085;DHT22;9169;44.492;11.372;2022-12-07T13:56:42;14.50;65.20
18085;DHT22;9169;44.492;11.372;2022-12-07T13:59:12;14.40;65.00
18085;DHT22;9169;44.492;11.372;2022-12-07T14:01:39;14.20;65.00
18085;DHT22;9169;44.492;11.372;2022-12-07T14:06:51;14.10;65.00
18085;DHT22;9169;44.492;11.372;2022-12-07T14:09:18;14.10;64.70
18085;DHT22;9169;44.492;11.372;2022-12-07T14:11:47;14.10;65.00
18085;DHT22;9169;44.492;11.372;2022-12-07T14:14:16;14.00;63.70
18085;DHT22;9169;44.492;11.372;2022-12-07T14:16:43;13.90;63.70
18085;DHT22;9169;44.492;11.372;2022-12-07T14:22:05;13.80;63.70
18085;DHT22;9169;44.492;11.372;2022-12-07T14:24:33;13.80;63.40
18085;DHT22;9169;44.492;11.372;2022-12-07T14:27:16;13.70;63.30
18085;DHT22;9169;44.492;11.372;2022-12-07T14:29:43;13.70;63.00
18085;DHT22;9169;44.492;11.372;2022-12-07T14:32:20;13.60;62.50
18085;DHT22;9169;44.492;11.372;2022-12-07T14:34:59;13.50;62.70
18085;DHT22;9169;44.492;11.372;2022-12-07T14:37:26;13.40;62.70
18085;DHT22;9169;44.492;11.372;2022-12-07T14:39:53;13.40;63.00
18085;DHT22;9169;44.492;11.372;2022-12-07T14:42:22;13.40;62.80
18085;DHT22;9169;44.492;11.372;2022-12-07T14:44:50;13.30;63.00
18085;DHT22;9169;44.492;11.372;2022-12-07T14:47:17;13.30;63.10
18085;DHT22;9169;44.492;11.372;2022-12-07T14:49:44;13.30;63.10
18085;DHT22;9169;44.492;11.372;2022-12-07T14:52:13;13.30;63.10
18085;DHT22;9169;44.492;11.372;2022-12-07T14:54:41;13.20;62.70
18085;DHT22;9169;44.492;11.372;2022-12-07T14:57:09;13.10;62.70
18085;DHT22;9169;44.492;11.372;2022-12-07T14:59:37;13.10;62.80
18085;DHT22;9169;44.492;11.372;2022-12-07T15:02:04;13.00;62.70
18085;DHT22;9169;44.492;11.372;2022-12-07T15:04:31;13.00;62.80
18085;DHT22;9169;44.492;11.372;2022-12-07T15:06:59;13.00;62.90
18085;DHT22;9169;44.492;11.372;2022-12-07T15:09:26;13.00;62.90
18085;DHT22;9169;44.492;11.372;2022-12-07T15:11:52;13.00;62.90
18085;DHT22;9169;44.492;11.372;2022-12-07T15:14:20;13.00;63.00
18085;DHT22;9169;44.492;11.372;2022-12-07T15:16:48;13.00;63.00
18085;DHT22;9169;44.492;11.372;2022-12-07T15:19:16;12.90;62.90
18085;DHT22;9169;44.492;11.372;2022-12-07T15:21:43;12.80;62.80
18085;DHT22;9169;44.492;11.372;2022-12-07T15:24:10;12.80;62.90
18085;DHT22;9169;44.492;11.372;2022-12-07T15:26:37;12.70;62.90
18085;DHT22;9169;44.492;11.372;2022-12-07T15:29:04;12.70;63.10
18085;DHT22;9169;44.492;11.372;2022-12-07T15:31:31;12.70;63.10
18085;DHT22;9169;44.492;11.372;2022-12-07T15:34:00;12.60;63.10
18085;DHT22;9169;44.492;11.372;2022-12-07T15:36:27;12.60;63.20
18085;DHT22;9169;44.492;11.372;2022-12-07T15:38:55;12.50;63.30
18085;DHT22;9169;44.492;11.372;2022-12-07T15:41:21;12.50;63.40
18085;DHT22;9169;44.492;11.372;2022-12-07T15:43:48;12.40;63.40
18085;DHT22;9169;44.492;11.372;2022-12-07T15:46:32;12.30;63.40
18085;DHT22;9169;44.492;11.372;2022-12-07T15:49:01;12.30;63.50
18085;DHT22;9169;44.492;11.372;2022-12-07T15:51:28;12.30;63.50
18085;DHT22;9169;44.492;11.372;2022-12-07T15:53:55;12.30;63.60
18085;DHT22;9169;44.492;11.372;2022-12-07T15:56:23;12.20;63.50
18085;DHT22;9169;44.492;11.372;2022-12-07T15:58:50;12.20;63.50
18085;DHT22;9169;44.492;11.372;2022-12-07T16:01:17;12.20;64.00
18085;DHT22;9169;44.492;11.372;2022-12-07T16:03:45;12.10;64.00
18085;DHT22;9169;44.492;11.372;2022-12-07T16:06:14;12.10;63.70